Terminal Aerodrome Forecast
Issued by NWS New Orleans/Baton Rouge, LA

Current Version | Previous Version | Text Only | Print | Product List | Glossary On
Versions: 1 2 3 4 5 6 7 8 9 10 11 12 13 14 15 16 17 18 19 20 21 22 23 24 25 26 27 28 29 30 31 32
877
FTUS44 KLIX 041738
TAFNEW
TAF
KNEW 041738Z 0418/0518 34015G18KT P6SM SKC
     FM042300 33013G25KT P6SM FEW050 FEW250
     FM050500 31017KT P6SM SKC
     FM051200 35015KT P6SM SKC=

USA.gov is the U.S. government's official web portal to all federal, state and local government web resources and services.